Burtons, Mississippi
Current Conditions -  °F | °C
As of 1:55 AM on Friday 31 Oct 2014 (Local Time) from KCRX Reporting Station
Light Rain Light Rain  
Wind Chill: 52°   Ceiling: 6000
Heat Index: 52°   Visibility: 4mi
Dew Point: 48°   Wind: 7mph
Humidity: 88%   Direction: 10°N
Pressure: 30.01"   Gusts: NA
Location:  34.6741°N, 88.5234°W
Report Text: KCRX 310655Z AUTO 01006KT 4SM -RA FEW022 SCT042 BKN060 11/09 A3001 RMK AO2
Loading
Personal Weather Stations






























Interactive Weather Map
Tropical Storm Tracking
New forecast layout! Learn more

10-Day Weather Forecast

Advertisements
Track Severe Weather on mobile